sensor_id;sensor_type;location;lat;lon;timestamp;P1;durP1;ratioP1;P2;durP2;ratioP2
18505;SDS011;9382;53.242;10.438;2023-11-21T00:02:43;3.90;;;2.63;;
18505;SDS011;9382;53.242;10.438;2023-11-21T00:05:34;3.70;;;3.07;;
18505;SDS011;9382;53.242;10.438;2023-11-21T00:08:05;4.20;;;3.10;;
18505;SDS011;9382;53.242;10.438;2023-11-21T00:10:34;4.30;;;3.07;;
18505;SDS011;9382;53.242;10.438;2023-11-21T00:13:05;3.33;;;2.90;;
18505;SDS011;9382;53.242;10.438;2023-11-21T00:15:37;5.00;;;3.07;;
18505;SDS011;9382;53.242;10.438;2023-11-21T00:18:20;5.00;;;3.27;;
18505;SDS011;9382;53.242;10.438;2023-11-21T00:20:49;4.93;;;3.00;;
18505;SDS011;9382;53.242;10.438;2023-11-21T00:23:24;5.77;;;3.30;;
18505;SDS011;9382;53.242;10.438;2023-11-21T00:26:02;4.37;;;3.47;;
18505;SDS011;9382;53.242;10.438;2023-11-21T00:28:48;6.93;;;4.13;;
18505;SDS011;9382;53.242;10.438;2023-11-21T00:31:47;5.93;;;4.10;;
18505;SDS011;9382;53.242;10.438;2023-11-21T00:34:28;7.13;;;4.10;;
18505;SDS011;9382;53.242;10.438;2023-11-21T00:37:01;10.17;;;5.20;;
18505;SDS011;9382;53.242;10.438;2023-11-21T00:40:07;11.47;;;5.30;;
18505;SDS011;9382;53.242;10.438;2023-11-21T00:42:40;12.83;;;6.43;;
18505;SDS011;9382;53.242;10.438;2023-11-21T00:45:29;11.27;;;6.23;;
18505;SDS011;9382;53.242;10.438;2023-11-21T00:48:07;8.83;;;5.47;;
18505;SDS011;9382;53.242;10.438;2023-11-21T00:50:46;9.63;;;5.87;;
18505;SDS011;9382;53.242;10.438;2023-11-21T00:53:43;12.00;;;6.07;;
18505;SDS011;9382;53.242;10.438;2023-11-21T00:56:18;10.03;;;5.90;;
18505;SDS011;9382;53.242;10.438;2023-11-21T00:58:51;10.73;;;5.67;;
18505;SDS011;9382;53.242;10.438;2023-11-21T01:01:23;9.30;;;5.03;;
18505;SDS011;9382;53.242;10.438;2023-11-21T01:03:51;10.10;;;5.80;;
18505;SDS011;9382;53.242;10.438;2023-11-21T01:06:19;13.93;;;5.67;;
18505;SDS011;9382;53.242;10.438;2023-11-21T01:08:48;12.20;;;5.87;;
18505;SDS011;9382;53.242;10.438;2023-11-21T01:11:18;14.03;;;6.63;;
18505;SDS011;9382;53.242;10.438;2023-11-21T01:13:51;13.50;;;6.93;;
18505;SDS011;9382;53.242;10.438;2023-11-21T01:16:23;13.93;;;6.80;;
18505;SDS011;9382;53.242;10.438;2023-11-21T01:18:50;13.60;;;7.20;;
18505;SDS011;9382;53.242;10.438;2023-11-21T01:21:24;17.33;;;8.33;;
18505;SDS011;9382;53.242;10.438;2023-11-21T01:23:53;18.67;;;8.00;;
18505;SDS011;9382;53.242;10.438;2023-11-21T01:26:26;19.57;;;8.90;;
18505;SDS011;9382;53.242;10.438;2023-11-21T01:29:07;17.03;;;8.40;;
18505;SDS011;9382;53.242;10.438;2023-11-21T01:35:03;16.67;;;8.53;;
18505;SDS011;9382;53.242;10.438;2023-11-21T01:37:36;18.30;;;8.80;;
18505;SDS011;9382;53.242;10.438;2023-11-21T01:40:10;15.93;;;8.50;;
18505;SDS011;9382;53.242;10.438;2023-11-21T01:42:39;18.80;;;9.33;;
18505;SDS011;9382;53.242;10.438;2023-11-21T01:45:11;17.87;;;8.33;;
18505;SDS011;9382;53.242;10.438;2023-11-21T01:47:49;17.03;;;8.63;;
18505;SDS011;9382;53.242;10.438;2023-11-21T01:50:22;19.23;;;8.90;;
18505;SDS011;9382;53.242;10.438;2023-11-21T01:53:02;15.83;;;8.87;;
18505;SDS011;9382;53.242;10.438;2023-11-21T01:55:31;19.57;;;8.67;;
18505;SDS011;9382;53.242;10.438;2023-11-21T01:58:05;20.13;;;9.87;;
18505;SDS011;9382;53.242;10.438;2023-11-21T02:00:33;24.20;;;11.33;;
18505;SDS011;9382;53.242;10.438;2023-11-21T02:03:03;24.07;;;11.60;;
18505;SDS011;9382;53.242;10.438;2023-11-21T02:05:39;21.17;;;10.70;;
18505;SDS011;9382;53.242;10.438;2023-11-21T02:08:06;22.47;;;11.30;;
18505;SDS011;9382;53.242;10.438;2023-11-21T02:10:42;18.80;;;10.03;;
18505;SDS011;9382;53.242;10.438;2023-11-21T02:13:13;19.70;;;10.10;;
18505;SDS011;9382;53.242;10.438;2023-11-21T02:15:46;18.57;;;10.27;;
18505;SDS011;9382;53.242;10.438;2023-11-21T02:18:19;19.27;;;10.67;;
18505;SDS011;9382;53.242;10.438;2023-11-21T02:21:23;18.33;;;10.00;;
18505;SDS011;9382;53.242;10.438;2023-11-21T02:24:00;20.87;;;10.30;;
18505;SDS011;9382;53.242;10.438;2023-11-21T02:26:32;23.03;;;11.00;;
18505;SDS011;9382;53.242;10.438;2023-11-21T02:29:04;23.10;;;11.47;;
18505;SDS011;9382;53.242;10.438;2023-11-21T02:31:43;21.17;;;11.17;;
18505;SDS011;9382;53.242;10.438;2023-11-21T02:34:16;20.27;;;10.87;;
18505;SDS011;9382;53.242;10.438;2023-11-21T02:36:46;21.53;;;11.07;;
18505;SDS011;9382;53.242;10.438;2023-11-21T02:39:16;20.00;;;10.43;;
18505;SDS011;9382;53.242;10.438;2023-11-21T02:41:49;19.17;;;10.27;;
18505;SDS011;9382;53.242;10.438;2023-11-21T02:44:16;21.27;;;10.07;;
18505;SDS011;9382;53.242;10.438;2023-11-21T02:46:43;22.17;;;11.43;;
18505;SDS011;9382;53.242;10.438;2023-11-21T02:49:10;22.70;;;10.80;;
18505;SDS011;9382;53.242;10.438;2023-11-21T02:51:37;21.60;;;10.67;;
18505;SDS011;9382;53.242;10.438;2023-11-21T02:54:05;21.23;;;10.30;;
18505;SDS011;9382;53.242;10.438;2023-11-21T02:56:36;18.77;;;10.03;;
18505;SDS011;9382;53.242;10.438;2023-11-21T02:59:07;20.77;;;9.70;;
18505;SDS011;9382;53.242;10.438;2023-11-21T03:01:34;20.83;;;9.73;;
18505;SDS011;9382;53.242;10.438;2023-11-21T03:04:02;22.40;;;10.27;;
18505;SDS011;9382;53.242;10.438;2023-11-21T03:06:35;20.27;;;10.20;;
18505;SDS011;9382;53.242;10.438;2023-11-21T03:09:03;17.90;;;9.53;;
18505;SDS011;9382;53.242;10.438;2023-11-21T03:11:31;20.20;;;10.00;;
18505;SDS011;9382;53.242;10.438;2023-11-21T03:14:00;18.57;;;8.90;;
18505;SDS011;9382;53.242;10.438;2023-11-21T03:16:27;16.97;;;8.60;;
18505;SDS011;9382;53.242;10.438;2023-11-21T03:18:54;19.77;;;9.83;;
18505;SDS011;9382;53.242;10.438;2023-11-21T03:21:21;19.03;;;9.43;;
18505;SDS011;9382;53.242;10.438;2023-11-21T03:23:48;18.23;;;9.23;;
18505;SDS011;9382;53.242;10.438;2023-11-21T03:26:36;16.97;;;8.83;;
18505;SDS011;9382;53.242;10.438;2023-11-21T03:29:05;17.27;;;9.07;;
18505;SDS011;9382;53.242;10.438;2023-11-21T03:31:34;18.97;;;9.90;;
18505;SDS011;9382;53.242;10.438;2023-11-21T03:34:01;21.77;;;8.77;;
18505;SDS011;9382;53.242;10.438;2023-11-21T03:36:28;14.60;;;7.90;;
18505;SDS011;9382;53.242;10.438;2023-11-21T03:38:55;16.83;;;9.23;;
18505;SDS011;9382;53.242;10.438;2023-11-21T03:41:27;18.33;;;8.40;;
18505;SDS011;9382;53.242;10.438;2023-11-21T03:43:56;15.87;;;8.90;;
18505;SDS011;9382;53.242;10.438;2023-11-21T03:46:23;17.47;;;8.67;;
18505;SDS011;9382;53.242;10.438;2023-11-21T03:48:50;18.77;;;8.90;;
18505;SDS011;9382;53.242;10.438;2023-11-21T03:51:19;21.47;;;9.33;;
18505;SDS011;9382;53.242;10.438;2023-11-21T03:53:46;18.50;;;9.97;;
18505;SDS011;9382;53.242;10.438;2023-11-21T03:56:15;18.77;;;9.33;;
18505;SDS011;9382;53.242;10.438;2023-11-21T03:58:48;18.80;;;9.03;;
18505;SDS011;9382;53.242;10.438;2023-11-21T04:01:21;18.40;;;9.60;;
18505;SDS011;9382;53.242;10.438;2023-11-21T04:03:54;17.90;;;9.03;;
18505;SDS011;9382;53.242;10.438;2023-11-21T04:06:24;21.07;;;9.67;;
18505;SDS011;9382;53.242;10.438;2023-11-21T04:08:51;17.13;;;8.63;;
18505;SDS011;9382;53.242;10.438;2023-11-21T04:11:18;19.83;;;9.07;;
18505;SDS011;9382;53.242;10.438;2023-11-21T04:13:45;16.63;;;8.30;;
18505;SDS011;9382;53.242;10.438;2023-11-21T04:16:12;20.73;;;8.87;;
18505;SDS011;9382;53.242;10.438;2023-11-21T04:18:48;17.63;;;8.50;;
18505;SDS011;9382;53.242;10.438;2023-11-21T04:21:17;15.23;;;7.83;;
18505;SDS011;9382;53.242;10.438;2023-11-21T04:23:50;16.87;;;9.03;;
18505;SDS011;9382;53.242;10.438;2023-11-21T04:26:27;17.03;;;8.70;;
18505;SDS011;9382;53.242;10.438;2023-11-21T04:28:58;17.43;;;9.13;;
18505;SDS011;9382;53.242;10.438;2023-11-21T04:31:27;15.13;;;7.53;;
18505;SDS011;9382;53.242;10.438;2023-11-21T04:33:57;15.83;;;8.43;;
18505;SDS011;9382;53.242;10.438;2023-11-21T04:36:29;17.70;;;9.00;;
18505;SDS011;9382;53.242;10.438;2023-11-21T04:38:56;17.37;;;8.00;;
18505;SDS011;9382;53.242;10.438;2023-11-21T04:41:24;17.83;;;8.73;;
18505;SDS011;9382;53.242;10.438;2023-11-21T04:43:58;16.77;;;8.37;;
18505;SDS011;9382;53.242;10.438;2023-11-21T04:46:25;17.13;;;9.20;;
18505;SDS011;9382;53.242;10.438;2023-11-21T04:48:57;17.20;;;8.63;;
18505;SDS011;9382;53.242;10.438;2023-11-21T04:51:24;16.57;;;8.53;;
18505;SDS011;9382;53.242;10.438;2023-11-21T04:53:57;16.63;;;8.80;;
18505;SDS011;9382;53.242;10.438;2023-11-21T04:56:26;16.40;;;8.67;;
18505;SDS011;9382;53.242;10.438;2023-11-21T04:58:55;17.97;;;9.33;;
18505;SDS011;9382;53.242;10.438;2023-11-21T05:01:27;17.03;;;8.73;;
18505;SDS011;9382;53.242;10.438;2023-11-21T05:03:57;18.03;;;9.43;;
18505;SDS011;9382;53.242;10.438;2023-11-21T05:06:29;16.97;;;8.83;;
18505;SDS011;9382;53.242;10.438;2023-11-21T05:08:56;20.33;;;10.07;;
18505;SDS011;9382;53.242;10.438;2023-11-21T05:11:24;19.30;;;10.17;;
18505;SDS011;9382;53.242;10.438;2023-11-21T05:13:53;18.43;;;9.17;;
18505;SDS011;9382;53.242;10.438;2023-11-21T05:16:28;22.70;;;10.87;;
18505;SDS011;9382;53.242;10.438;2023-11-21T05:19:01;19.07;;;10.07;;
18505;SDS011;9382;53.242;10.438;2023-11-21T05:21:34;19.27;;;10.20;;
18505;SDS011;9382;53.242;10.438;2023-11-21T05:24:07;18.90;;;10.10;;
18505;SDS011;9382;53.242;10.438;2023-11-21T05:26:34;18.73;;;10.00;;
18505;SDS011;9382;53.242;10.438;2023-11-21T05:29:06;19.47;;;10.03;;
18505;SDS011;9382;53.242;10.438;2023-11-21T05:31:43;20.30;;;10.03;;
18505;SDS011;9382;53.242;10.438;2023-11-21T05:34:18;18.90;;;10.17;;
18505;SDS011;9382;53.242;10.438;2023-11-21T05:36:51;21.03;;;10.17;;
18505;SDS011;9382;53.242;10.438;2023-11-21T05:39:19;18.20;;;9.80;;
18505;SDS011;9382;53.242;10.438;2023-11-21T05:41:46;17.13;;;9.63;;
18505;SDS011;9382;53.242;10.438;2023-11-21T05:44:16;19.67;;;10.53;;
18505;SDS011;9382;53.242;10.438;2023-11-21T05:46:51;19.23;;;10.20;;
18505;SDS011;9382;53.242;10.438;2023-11-21T05:52:04;21.93;;;9.97;;
18505;SDS011;9382;53.242;10.438;2023-11-21T05:54:37;17.07;;;9.50;;
18505;SDS011;9382;53.242;10.438;2023-11-21T05:57:04;18.73;;;9.43;;
18505;SDS011;9382;53.242;10.438;2023-11-21T05:59:45;18.83;;;10.07;;
18505;SDS011;9382;53.242;10.438;2023-11-21T06:02:15;20.17;;;9.70;;
18505;SDS011;9382;53.242;10.438;2023-11-21T06:04:44;21.07;;;11.00;;
18505;SDS011;9382;53.242;10.438;2023-11-21T06:07:14;19.53;;;9.97;;
18505;SDS011;9382;53.242;10.438;2023-11-21T06:09:47;19.73;;;10.33;;
18505;SDS011;9382;53.242;10.438;2023-11-21T06:12:15;19.00;;;9.50;;
18505;SDS011;9382;53.242;10.438;2023-11-21T06:14:52;16.80;;;8.67;;
18505;SDS011;9382;53.242;10.438;2023-11-21T06:17:20;20.67;;;9.63;;
18505;SDS011;9382;53.242;10.438;2023-11-21T06:19:55;20.27;;;10.03;;
18505;SDS011;9382;53.242;10.438;2023-11-21T06:22:24;20.40;;;9.60;;
18505;SDS011;9382;53.242;10.438;2023-11-21T06:24:58;19.73;;;9.07;;
18505;SDS011;9382;53.242;10.438;2023-11-21T06:27:33;21.03;;;9.07;;
18505;SDS011;9382;53.242;10.438;2023-11-21T06:30:01;18.70;;;8.97;;
18505;SDS011;9382;53.242;10.438;2023-11-21T06:32:28;19.17;;;9.90;;
18505;SDS011;9382;53.242;10.438;2023-11-21T06:35:00;18.93;;;9.27;;
18505;SDS011;9382;53.242;10.438;2023-11-21T06:37:34;18.00;;;8.90;;
18505;SDS011;9382;53.242;10.438;2023-11-21T06:40:07;19.37;;;9.43;;
18505;SDS011;9382;53.242;10.438;2023-11-21T06:42:53;19.57;;;9.73;;
18505;SDS011;9382;53.242;10.438;2023-11-21T06:45:50;20.30;;;9.57;;
18505;SDS011;9382;53.242;10.438;2023-11-21T06:48:32;16.87;;;9.27;;
18505;SDS011;9382;53.242;10.438;2023-11-21T06:56:48;20.43;;;9.33;;
18505;SDS011;9382;53.242;10.438;2023-11-21T06:59:32;19.43;;;10.50;;
18505;SDS011;9382;53.242;10.438;2023-11-21T07:02:23;18.00;;;10.03;;
18505;SDS011;9382;53.242;10.438;2023-11-21T07:05:20;19.10;;;10.33;;
18505;SDS011;9382;53.242;10.438;2023-11-21T07:08:11;16.87;;;9.73;;
18505;SDS011;9382;53.242;10.438;2023-11-21T07:10:46;20.00;;;9.90;;
18505;SDS011;9382;53.242;10.438;2023-11-21T07:13:31;16.13;;;9.70;;
18505;SDS011;9382;53.242;10.438;2023-11-21T07:16:01;16.60;;;9.80;;
18505;SDS011;9382;53.242;10.438;2023-11-21T07:18:35;20.43;;;10.13;;
18505;SDS011;9382;53.242;10.438;2023-11-21T07:21:10;20.70;;;9.50;;
18505;SDS011;9382;53.242;10.438;2023-11-21T07:23:51;17.53;;;8.67;;
18505;SDS011;9382;53.242;10.438;2023-11-21T07:26:24;18.43;;;8.60;;
18505;SDS011;9382;53.242;10.438;2023-11-21T07:28:59;17.50;;;8.87;;
18505;SDS011;9382;53.242;10.438;2023-11-21T07:31:31;17.23;;;8.17;;
18505;SDS011;9382;53.242;10.438;2023-11-21T07:34:07;19.07;;;10.03;;
18505;SDS011;9382;53.242;10.438;2023-11-21T07:36:36;17.30;;;8.77;;
18505;SDS011;9382;53.242;10.438;2023-11-21T07:39:05;20.10;;;10.33;;
18505;SDS011;9382;53.242;10.438;2023-11-21T07:41:31;19.77;;;10.67;;
18505;SDS011;9382;53.242;10.438;2023-11-21T07:43:58;17.53;;;10.00;;
18505;SDS011;9382;53.242;10.438;2023-11-21T07:46:25;19.53;;;9.27;;
18505;SDS011;9382;53.242;10.438;2023-11-21T07:48:52;17.27;;;9.60;;
18505;SDS011;9382;53.242;10.438;2023-11-21T07:51:20;18.87;;;9.47;;
18505;SDS011;9382;53.242;10.438;2023-11-21T07:53:53;17.43;;;9.30;;
18505;SDS011;9382;53.242;10.438;2023-11-21T07:56:22;18.20;;;10.00;;
18505;SDS011;9382;53.242;10.438;2023-11-21T07:58:49;20.77;;;10.57;;
18505;SDS011;9382;53.242;10.438;2023-11-21T08:01:16;20.07;;;10.30;;
18505;SDS011;9382;53.242;10.438;2023-11-21T08:03:43;19.87;;;10.50;;
18505;SDS011;9382;53.242;10.438;2023-11-21T08:06:10;16.47;;;9.50;;
18505;SDS011;9382;53.242;10.438;2023-11-21T08:08:37;19.17;;;9.73;;
18505;SDS011;9382;53.242;10.438;2023-11-21T08:11:04;15.67;;;9.20;;
18505;SDS011;9382;53.242;10.438;2023-11-21T08:13:34;21.27;;;9.43;;
18505;SDS011;9382;53.242;10.438;2023-11-21T08:16:01;19.40;;;9.93;;
18505;SDS011;9382;53.242;10.438;2023-11-21T08:18:29;19.87;;;10.00;;
18505;SDS011;9382;53.242;10.438;2023-11-21T08:20:56;20.97;;;9.40;;
18505;SDS011;9382;53.242;10.438;2023-11-21T08:23:23;17.93;;;9.30;;
18505;SDS011;9382;53.242;10.438;2023-11-21T08:25:53;18.13;;;10.10;;
18505;SDS011;9382;53.242;10.438;2023-11-21T08:28:20;19.67;;;10.70;;
18505;SDS011;9382;53.242;10.438;2023-11-21T08:30:49;19.97;;;10.37;;
18505;SDS011;9382;53.242;10.438;2023-11-21T08:33:16;17.60;;;9.67;;
18505;SDS011;9382;53.242;10.438;2023-11-21T08:35:43;20.23;;;10.80;;
18505;SDS011;9382;53.242;10.438;2023-11-21T08:38:10;19.40;;;10.37;;
18505;SDS011;9382;53.242;10.438;2023-11-21T08:40:37;17.17;;;10.30;;
18505;SDS011;9382;53.242;10.438;2023-11-21T08:43:04;21.17;;;10.13;;
18505;SDS011;9382;53.242;10.438;2023-11-21T08:45:32;18.93;;;10.83;;
18505;SDS011;9382;53.242;10.438;2023-11-21T08:48:02;18.50;;;10.10;;
18505;SDS011;9382;53.242;10.438;2023-11-21T08:50:29;21.33;;;10.40;;
18505;SDS011;9382;53.242;10.438;2023-11-21T08:52:56;18.60;;;9.40;;
18505;SDS011;9382;53.242;10.438;2023-11-21T08:55:22;19.77;;;10.50;;
18505;SDS011;9382;53.242;10.438;2023-11-21T08:57:49;17.93;;;10.50;;
18505;SDS011;9382;53.242;10.438;2023-11-21T09:00:16;18.13;;;10.27;;
18505;SDS011;9382;53.242;10.438;2023-11-21T09:02:44;17.77;;;9.80;;
18505;SDS011;9382;53.242;10.438;2023-11-21T09:05:14;18.00;;;10.00;;
18505;SDS011;9382;53.242;10.438;2023-11-21T09:07:42;18.30;;;10.37;;
18505;SDS011;9382;53.242;10.438;2023-11-21T09:10:11;18.50;;;10.47;;
18505;SDS011;9382;53.242;10.438;2023-11-21T09:12:39;16.83;;;9.83;;
18505;SDS011;9382;53.242;10.438;2023-11-21T09:15:08;18.37;;;10.17;;
18505;SDS011;9382;53.242;10.438;2023-11-21T09:17:36;16.77;;;9.97;;
18505;SDS011;9382;53.242;10.438;2023-11-21T09:20:04;18.77;;;9.83;;
18505;SDS011;9382;53.242;10.438;2023-11-21T09:22:36;17.60;;;10.50;;
18505;SDS011;9382;53.242;10.438;2023-11-21T09:25:03;15.80;;;9.20;;
18505;SDS011;9382;53.242;10.438;2023-11-21T09:27:31;20.40;;;9.60;;
18505;SDS011;9382;53.242;10.438;2023-11-21T09:30:00;13.43;;;8.80;;
18505;SDS011;9382;53.242;10.438;2023-11-21T09:32:33;14.40;;;9.10;;
18505;SDS011;9382;53.242;10.438;2023-11-21T09:35:02;18.43;;;9.67;;
18505;SDS011;9382;53.242;10.438;2023-11-21T09:37:29;15.50;;;9.13;;
18505;SDS011;9382;53.242;10.438;2023-11-21T09:40:00;16.03;;;9.17;;
18505;SDS011;9382;53.242;10.438;2023-11-21T09:42:29;13.17;;;8.37;;
18505;SDS011;9382;53.242;10.438;2023-11-21T09:45:02;14.17;;;8.70;;
18505;SDS011;9382;53.242;10.438;2023-11-21T09:47:35;12.07;;;8.27;;
18505;SDS011;9382;53.242;10.438;2023-11-21T09:50:09;14.27;;;8.80;;
18505;SDS011;9382;53.242;10.438;2023-11-21T09:52:44;14.73;;;9.03;;
18505;SDS011;9382;53.242;10.438;2023-11-21T09:55:17;11.53;;;7.93;;
18505;SDS011;9382;53.242;10.438;2023-11-21T09:57:46;12.63;;;8.07;;
18505;SDS011;9382;53.242;10.438;2023-11-21T10:00:20;12.70;;;8.17;;
18505;SDS011;9382;53.242;10.438;2023-11-21T10:02:52;14.43;;;8.30;;
18505;SDS011;9382;53.242;10.438;2023-11-21T10:05:19;14.10;;;8.30;;
18505;SDS011;9382;53.242;10.438;2023-11-21T10:07:47;12.77;;;7.70;;
18505;SDS011;9382;53.242;10.438;2023-11-21T10:10:19;13.50;;;7.87;;
18505;SDS011;9382;53.242;10.438;2023-11-21T10:12:49;10.57;;;7.43;;
18505;SDS011;9382;53.242;10.438;2023-11-21T10:15:21;12.27;;;7.47;;
18505;SDS011;9382;53.242;10.438;2023-11-21T10:17:50;12.70;;;7.00;;
18505;SDS011;9382;53.242;10.438;2023-11-21T10:20:19;9.77;;;6.90;;
18505;SDS011;9382;53.242;10.438;2023-11-21T10:22:46;11.27;;;6.83;;
18505;SDS011;9382;53.242;10.438;2023-11-21T10:25:15;9.53;;;6.43;;
18505;SDS011;9382;53.242;10.438;2023-11-21T10:27:47;9.03;;;6.60;;
18505;SDS011;9382;53.242;10.438;2023-11-21T10:30:16;11.27;;;7.27;;
18505;SDS011;9382;53.242;10.438;2023-11-21T10:32:43;9.77;;;6.57;;
18505;SDS011;9382;53.242;10.438;2023-11-21T10:35:12;12.43;;;6.70;;
18505;SDS011;9382;53.242;10.438;2023-11-21T10:37:39;8.87;;;6.00;;
18505;SDS011;9382;53.242;10.438;2023-11-21T10:40:07;9.33;;;6.50;;
18505;SDS011;9382;53.242;10.438;2023-11-21T10:42:39;8.77;;;6.67;;
18505;SDS011;9382;53.242;10.438;2023-11-21T10:45:08;9.87;;;6.60;;
18505;SDS011;9382;53.242;10.438;2023-11-21T10:47:38;11.13;;;6.73;;
18505;SDS011;9382;53.242;10.438;2023-11-21T10:50:05;8.70;;;6.10;;
18505;SDS011;9382;53.242;10.438;2023-11-21T10:52:36;9.13;;;6.00;;
18505;SDS011;9382;53.242;10.438;2023-11-21T10:55:07;7.70;;;6.10;;
18505;SDS011;9382;53.242;10.438;2023-11-21T10:57:45;8.27;;;5.50;;
18505;SDS011;9382;53.242;10.438;2023-11-21T11:00:20;7.87;;;5.63;;
18505;SDS011;9382;53.242;10.438;2023-11-21T11:02:48;7.23;;;5.50;;
18505;SDS011;9382;53.242;10.438;2023-11-21T11:05:20;8.63;;;5.20;;
18505;SDS011;9382;53.242;10.438;2023-11-21T11:08:02;6.63;;;4.70;;
18505;SDS011;9382;53.242;10.438;2023-11-21T11:10:31;6.17;;;5.03;;
18505;SDS011;9382;53.242;10.438;2023-11-21T11:13:01;4.97;;;4.27;;
18505;SDS011;9382;53.242;10.438;2023-11-21T11:15:29;6.40;;;4.53;;
18505;SDS011;9382;53.242;10.438;2023-11-21T11:17:56;5.97;;;4.70;;
18505;SDS011;9382;53.242;10.438;2023-11-21T11:20:24;5.37;;;4.47;;
18505;SDS011;9382;53.242;10.438;2023-11-21T11:23:04;6.87;;;4.63;;
18505;SDS011;9382;53.242;10.438;2023-11-21T11:25:46;7.13;;;5.03;;
18505;SDS011;9382;53.242;10.438;2023-11-21T11:28:20;6.07;;;4.80;;
18505;SDS011;9382;53.242;10.438;2023-11-21T11:30:53;5.73;;;5.00;;
18505;SDS011;9382;53.242;10.438;2023-11-21T11:33:31;6.93;;;4.90;;
18505;SDS011;9382;53.242;10.438;2023-11-21T11:36:06;6.57;;;4.97;;
18505;SDS011;9382;53.242;10.438;2023-11-21T11:38:44;5.00;;;4.47;;
18505;SDS011;9382;53.242;10.438;2023-11-21T11:41:24;5.93;;;4.43;;
18505;SDS011;9382;53.242;10.438;2023-11-21T11:43:51;6.93;;;4.53;;
18505;SDS011;9382;53.242;10.438;2023-11-21T11:46:20;5.00;;;4.30;;
18505;SDS011;9382;53.242;10.438;2023-11-21T11:48:47;5.03;;;4.20;;
18505;SDS011;9382;53.242;10.438;2023-11-21T11:51:30;7.20;;;5.13;;
18505;SDS011;9382;53.242;10.438;2023-11-21T11:53:57;6.17;;;5.03;;
18505;SDS011;9382;53.242;10.438;2023-11-21T11:56:25;4.50;;;4.10;;
18505;SDS011;9382;53.242;10.438;2023-11-21T11:58:53;6.50;;;5.10;;
18505;SDS011;9382;53.242;10.438;2023-11-21T12:01:24;5.23;;;4.20;;
18505;SDS011;9382;53.242;10.438;2023-11-21T12:06:56;5.17;;;4.27;;
18505;SDS011;9382;53.242;10.438;2023-11-21T12:09:25;6.50;;;4.83;;
18505;SDS011;9382;53.242;10.438;2023-11-21T12:11:52;5.03;;;4.53;;
18505;SDS011;9382;53.242;10.438;2023-11-21T12:14:21;5.97;;;4.73;;
18505;SDS011;9382;53.242;10.438;2023-11-21T12:16:50;5.87;;;4.63;;
18505;SDS011;9382;53.242;10.438;2023-11-21T12:19:18;5.60;;;4.53;;
18505;SDS011;9382;53.242;10.438;2023-11-21T12:21:46;4.93;;;4.40;;
18505;SDS011;9382;53.242;10.438;2023-11-21T12:24:13;6.30;;;4.53;;
18505;SDS011;9382;53.242;10.438;2023-11-21T12:26:41;5.37;;;4.43;;
18505;SDS011;9382;53.242;10.438;2023-11-21T12:29:09;5.23;;;4.73;;
18505;SDS011;9382;53.242;10.438;2023-11-21T12:31:35;4.90;;;4.40;;
18505;SDS011;9382;53.242;10.438;2023-11-21T12:34:04;5.63;;;4.87;;
18505;SDS011;9382;53.242;10.438;2023-11-21T12:36:31;8.37;;;5.17;;
18505;SDS011;9382;53.242;10.438;2023-11-21T12:38:59;6.27;;;5.20;;
18505;SDS011;9382;53.242;10.438;2023-11-21T12:41:27;6.77;;;5.00;;
18505;SDS011;9382;53.242;10.438;2023-11-21T12:43:55;5.90;;;5.23;;
18505;SDS011;9382;53.242;10.438;2023-11-21T12:46:22;5.13;;;4.40;;
18505;SDS011;9382;53.242;10.438;2023-11-21T12:48:51;7.07;;;4.90;;
18505;SDS011;9382;53.242;10.438;2023-11-21T12:51:19;6.70;;;4.53;;
18505;SDS011;9382;53.242;10.438;2023-11-21T12:53:47;7.10;;;4.83;;
18505;SDS011;9382;53.242;10.438;2023-11-21T12:56:15;9.30;;;5.97;;
18505;SDS011;9382;53.242;10.438;2023-11-21T12:58:43;9.33;;;6.27;;
18505;SDS011;9382;53.242;10.438;2023-11-21T13:01:12;7.43;;;5.33;;
18505;SDS011;9382;53.242;10.438;2023-11-21T13:03:43;6.90;;;5.23;;
18505;SDS011;9382;53.242;10.438;2023-11-21T13:06:13;10.37;;;5.40;;
18505;SDS011;9382;53.242;10.438;2023-11-21T13:08:43;6.97;;;5.20;;
18505;SDS011;9382;53.242;10.438;2023-11-21T13:11:10;7.27;;;4.87;;
18505;SDS011;9382;53.242;10.438;2023-11-21T13:13:40;6.50;;;4.20;;
18505;SDS011;9382;53.242;10.438;2023-11-21T13:16:07;6.30;;;4.07;;
18505;SDS011;9382;53.242;10.438;2023-11-21T13:18:34;5.93;;;4.50;;
18505;SDS011;9382;53.242;10.438;2023-11-21T13:21:02;7.77;;;5.10;;
18505;SDS011;9382;53.242;10.438;2023-11-21T13:23:35;6.90;;;4.90;;
18505;SDS011;9382;53.242;10.438;2023-11-21T13:26:06;9.00;;;5.90;;
18505;SDS011;9382;53.242;10.438;2023-11-21T13:28:33;9.13;;;5.27;;
18505;SDS011;9382;53.242;10.438;2023-11-21T13:31:03;11.50;;;6.57;;
18505;SDS011;9382;53.242;10.438;2023-11-21T13:33:45;8.80;;;5.27;;
18505;SDS011;9382;53.242;10.438;2023-11-21T13:36:18;7.43;;;4.60;;
18505;SDS011;9382;53.242;10.438;2023-11-21T13:38:47;7.17;;;4.57;;
18505;SDS011;9382;53.242;10.438;2023-11-21T13:41:16;4.90;;;4.40;;
18505;SDS011;9382;53.242;10.438;2023-11-21T13:43:43;5.40;;;4.53;;
18505;SDS011;9382;53.242;10.438;2023-11-21T13:46:15;5.77;;;4.60;;
18505;SDS011;9382;53.242;10.438;2023-11-21T13:48:46;7.43;;;5.03;;
18505;SDS011;9382;53.242;10.438;2023-11-21T13:51:20;5.97;;;4.80;;
18505;SDS011;9382;53.242;10.438;2023-11-21T13:53:57;7.00;;;4.90;;
18505;SDS011;9382;53.242;10.438;2023-11-21T13:56:25;5.53;;;4.63;;
18505;SDS011;9382;53.242;10.438;2023-11-21T13:58:54;6.47;;;4.77;;
18505;SDS011;9382;53.242;10.438;2023-11-21T14:01:23;7.87;;;4.63;;
18505;SDS011;9382;53.242;10.438;2023-11-21T14:04:12;7.47;;;5.13;;
18505;SDS011;9382;53.242;10.438;2023-11-21T14:06:45;7.73;;;5.27;;
18505;SDS011;9382;53.242;10.438;2023-11-21T14:09:14;14.33;;;5.30;;
18505;SDS011;9382;53.242;10.438;2023-11-21T14:11:49;6.57;;;4.97;;
18505;SDS011;9382;53.242;10.438;2023-11-21T14:14:17;7.63;;;5.40;;
18505;SDS011;9382;53.242;10.438;2023-11-21T14:16:44;7.83;;;5.40;;
18505;SDS011;9382;53.242;10.438;2023-11-21T14:19:11;8.27;;;5.20;;
18505;SDS011;9382;53.242;10.438;2023-11-21T14:21:42;8.70;;;4.87;;
18505;SDS011;9382;53.242;10.438;2023-11-21T14:24:11;9.03;;;5.93;;
18505;SDS011;9382;53.242;10.438;2023-11-21T14:26:39;7.87;;;4.90;;
18505;SDS011;9382;53.242;10.438;2023-11-21T14:29:09;8.93;;;5.37;;
18505;SDS011;9382;53.242;10.438;2023-11-21T14:31:39;9.37;;;5.93;;
18505;SDS011;9382;53.242;10.438;2023-11-21T14:34:07;7.60;;;5.73;;
18505;SDS011;9382;53.242;10.438;2023-11-21T14:36:34;8.93;;;6.00;;
18505;SDS011;9382;53.242;10.438;2023-11-21T14:39:01;8.20;;;5.77;;
18505;SDS011;9382;53.242;10.438;2023-11-21T14:41:32;8.87;;;6.30;;
18505;SDS011;9382;53.242;10.438;2023-11-21T14:44:03;9.37;;;5.03;;
18505;SDS011;9382;53.242;10.438;2023-11-21T14:46:34;6.60;;;4.67;;
18505;SDS011;9382;53.242;10.438;2023-11-21T14:49:04;9.87;;;5.47;;
18505;SDS011;9382;53.242;10.438;2023-11-21T14:51:44;7.60;;;6.17;;
18505;SDS011;9382;53.242;10.438;2023-11-21T14:54:25;8.03;;;5.40;;
18505;SDS011;9382;53.242;10.438;2023-11-21T14:57:05;6.63;;;5.37;;
18505;SDS011;9382;53.242;10.438;2023-11-21T14:59:34;8.63;;;5.50;;
18505;SDS011;9382;53.242;10.438;2023-11-21T15:02:05;9.03;;;5.40;;
18505;SDS011;9382;53.242;10.438;2023-11-21T15:04:41;6.53;;;4.67;;
18505;SDS011;9382;53.242;10.438;2023-11-21T15:07:08;8.00;;;4.83;;
18505;SDS011;9382;53.242;10.438;2023-11-21T15:09:36;7.63;;;5.33;;
18505;SDS011;9382;53.242;10.438;2023-11-21T15:12:06;10.00;;;5.10;;
18505;SDS011;9382;53.242;10.438;2023-11-21T15:14:43;6.77;;;5.20;;
18505;SDS011;9382;53.242;10.438;2023-11-21T15:17:14;7.83;;;5.57;;